sensor_id;sensor_type;location;lat;lon;timestamp;temperature;humidity
13436;DHT22;6790;49.520;8.504;2023-02-28T00:00:31;-1.10;99.90
13436;DHT22;6790;49.520;8.504;2023-02-28T00:02:57;-1.10;99.90
13436;DHT22;6790;49.520;8.504;2023-02-28T00:05:24;-1.20;99.90
13436;DHT22;6790;49.520;8.504;2023-02-28T00:07:51;-1.20;99.90
13436;DHT22;6790;49.520;8.504;2023-02-28T00:10:23;-1.20;99.90
13436;DHT22;6790;49.520;8.504;2023-02-28T00:12:52;-1.20;99.90
13436;DHT22;6790;49.520;8.504;2023-02-28T00:15:19;-1.10;99.90
13436;DHT22;6790;49.520;8.504;2023-02-28T00:17:45;-1.10;99.90
13436;DHT22;6790;49.520;8.504;2023-02-28T00:20:12;-1.20;99.90
13436;DHT22;6790;49.520;8.504;2023-02-28T00:22:40;-1.20;99.90
13436;DHT22;6790;49.520;8.504;2023-02-28T00:25:08;-1.30;99.90
13436;DHT22;6790;49.520;8.504;2023-02-28T00:27:35;-1.30;99.90
13436;DHT22;6790;49.520;8.504;2023-02-28T00:30:03;-1.30;99.90
13436;DHT22;6790;49.520;8.504;2023-02-28T00:32:29;-1.30;99.90
13436;DHT22;6790;49.520;8.504;2023-02-28T00:34:55;-1.40;99.90
13436;DHT22;6790;49.520;8.504;2023-02-28T00:37:21;-1.30;99.90
13436;DHT22;6790;49.520;8.504;2023-02-28T00:39:47;-1.30;99.90
13436;DHT22;6790;49.520;8.504;2023-02-28T00:42:13;-1.30;99.90
13436;DHT22;6790;49.520;8.504;2023-02-28T00:44:39;-1.40;99.90
13436;DHT22;6790;49.520;8.504;2023-02-28T00:47:04;-1.50;99.90
13436;DHT22;6790;49.520;8.504;2023-02-28T00:49:30;-1.40;99.90
13436;DHT22;6790;49.520;8.504;2023-02-28T00:51:56;-1.50;99.90
13436;DHT22;6790;49.520;8.504;2023-02-28T00:54:22;-1.60;99.90
13436;DHT22;6790;49.520;8.504;2023-02-28T00:56:48;-1.70;99.90
13436;DHT22;6790;49.520;8.504;2023-02-28T00:59:15;-1.80;99.90
13436;DHT22;6790;49.520;8.504;2023-02-28T01:01:43;-1.60;99.90
13436;DHT22;6790;49.520;8.504;2023-02-28T01:04:10;-1.60;99.90
13436;DHT22;6790;49.520;8.504;2023-02-28T01:06:36;-1.60;99.90
13436;DHT22;6790;49.520;8.504;2023-02-28T01:09:03;-1.70;99.90
13436;DHT22;6790;49.520;8.504;2023-02-28T01:11:31;-1.70;99.90
13436;DHT22;6790;49.520;8.504;2023-02-28T01:13:57;-1.70;99.90
13436;DHT22;6790;49.520;8.504;2023-02-28T01:16:23;-1.70;99.90
13436;DHT22;6790;49.520;8.504;2023-02-28T01:18:49;-1.80;99.90
13436;DHT22;6790;49.520;8.504;2023-02-28T01:21:17;-1.80;99.90
13436;DHT22;6790;49.520;8.504;2023-02-28T01:23:45;-1.90;99.90
13436;DHT22;6790;49.520;8.504;2023-02-28T01:26:13;-1.80;99.90
13436;DHT22;6790;49.520;8.504;2023-02-28T01:28:41;-1.80;99.90
13436;DHT22;6790;49.520;8.504;2023-02-28T01:31:07;-1.90;99.90
13436;DHT22;6790;49.520;8.504;2023-02-28T01:33:34;-1.90;99.90
13436;DHT22;6790;49.520;8.504;2023-02-28T01:36:05;-1.80;99.90
13436;DHT22;6790;49.520;8.504;2023-02-28T01:38:34;-1.90;99.90
13436;DHT22;6790;49.520;8.504;2023-02-28T01:41:00;-1.90;99.90
13436;DHT22;6790;49.520;8.504;2023-02-28T01:43:28;-2.00;99.90
13436;DHT22;6790;49.520;8.504;2023-02-28T01:45:57;-2.00;99.90
13436;DHT22;6790;49.520;8.504;2023-02-28T01:48:29;-2.10;99.90
13436;DHT22;6790;49.520;8.504;2023-02-28T01:51:00;-2.10;99.90
13436;DHT22;6790;49.520;8.504;2023-02-28T01:53:33;-2.00;99.90
13436;DHT22;6790;49.520;8.504;2023-02-28T01:56:04;-2.10;99.90
13436;DHT22;6790;49.520;8.504;2023-02-28T01:58:31;-2.10;99.90
13436;DHT22;6790;49.520;8.504;2023-02-28T02:00:57;-2.00;99.90
13436;DHT22;6790;49.520;8.504;2023-02-28T02:03:23;-2.10;99.90
13436;DHT22;6790;49.520;8.504;2023-02-28T02:05:49;-2.10;99.90
13436;DHT22;6790;49.520;8.504;2023-02-28T02:08:24;-2.20;99.90
13436;DHT22;6790;49.520;8.504;2023-02-28T02:10:54;-2.10;99.90
13436;DHT22;6790;49.520;8.504;2023-02-28T02:25:59;-2.50;99.90
13436;DHT22;6790;49.520;8.504;2023-02-28T02:31:32;-2.40;99.90
13436;DHT22;6790;49.520;8.504;2023-02-28T02:37:49;-2.40;99.90
13436;DHT22;6790;49.520;8.504;2023-02-28T02:40:22;-2.60;99.90
13436;DHT22;6790;49.520;8.504;2023-02-28T02:43:25;-2.60;99.90
13436;DHT22;6790;49.520;8.504;2023-02-28T02:46:01;-2.80;99.90
13436;DHT22;6790;49.520;8.504;2023-02-28T02:48:35;-2.80;99.90
13436;DHT22;6790;49.520;8.504;2023-02-28T02:51:07;-2.70;99.90
13436;DHT22;6790;49.520;8.504;2023-02-28T02:53:42;-2.80;99.90
13436;DHT22;6790;49.520;8.504;2023-02-28T02:56:12;-2.60;99.90
13436;DHT22;6790;49.520;8.504;2023-02-28T02:58:40;-2.70;99.90
13436;DHT22;6790;49.520;8.504;2023-02-28T03:01:12;-2.80;99.90
13436;DHT22;6790;49.520;8.504;2023-02-28T03:03:41;-2.80;99.90
13436;DHT22;6790;49.520;8.504;2023-02-28T03:06:07;-2.70;99.90
13436;DHT22;6790;49.520;8.504;2023-02-28T03:08:35;-2.90;99.90
13436;DHT22;6790;49.520;8.504;2023-02-28T03:11:05;-2.80;99.90
13436;DHT22;6790;49.520;8.504;2023-02-28T03:13:41;-2.90;99.90
13436;DHT22;6790;49.520;8.504;2023-02-28T03:16:35;-2.90;99.90
13436;DHT22;6790;49.520;8.504;2023-02-28T03:19:34;-2.70;99.90
13436;DHT22;6790;49.520;8.504;2023-02-28T03:22:30;-2.70;99.90
13436;DHT22;6790;49.520;8.504;2023-02-28T03:28:15;-2.60;99.90
13436;DHT22;6790;49.520;8.504;2023-02-28T03:30:51;-2.60;99.90
13436;DHT22;6790;49.520;8.504;2023-02-28T03:33:26;-2.80;99.90
13436;DHT22;6790;49.520;8.504;2023-02-28T03:36:04;-2.80;99.90
13436;DHT22;6790;49.520;8.504;2023-02-28T03:39:09;-2.80;99.90
13436;DHT22;6790;49.520;8.504;2023-02-28T03:44:39;-2.80;99.90
13436;DHT22;6790;49.520;8.504;2023-02-28T03:47:10;-2.80;99.90
13436;DHT22;6790;49.520;8.504;2023-02-28T03:52:27;-2.80;99.90
13436;DHT22;6790;49.520;8.504;2023-02-28T03:54:59;-2.90;99.90
13436;DHT22;6790;49.520;8.504;2023-02-28T04:00:36;-2.90;99.90
13436;DHT22;6790;49.520;8.504;2023-02-28T04:03:04;-2.90;99.90
13436;DHT22;6790;49.520;8.504;2023-02-28T04:05:30;-3.00;99.90
13436;DHT22;6790;49.520;8.504;2023-02-28T04:08:06;-3.00;99.90
13436;DHT22;6790;49.520;8.504;2023-02-28T04:10:32;-2.90;99.90
13436;DHT22;6790;49.520;8.504;2023-02-28T04:12:58;-3.00;99.90
13436;DHT22;6790;49.520;8.504;2023-02-28T04:15:24;-3.00;99.90
13436;DHT22;6790;49.520;8.504;2023-02-28T04:17:50;-3.10;99.90
13436;DHT22;6790;49.520;8.504;2023-02-28T04:20:16;-3.00;99.90
13436;DHT22;6790;49.520;8.504;2023-02-28T04:22:41;-2.70;99.90
13436;DHT22;6790;49.520;8.504;2023-02-28T04:25:07;-2.80;99.90
13436;DHT22;6790;49.520;8.504;2023-02-28T04:27:34;-2.80;99.90
13436;DHT22;6790;49.520;8.504;2023-02-28T04:29:59;-2.80;99.90
13436;DHT22;6790;49.520;8.504;2023-02-28T04:32:25;-2.80;99.90
13436;DHT22;6790;49.520;8.504;2023-02-28T04:34:51;-2.70;99.90
13436;DHT22;6790;49.520;8.504;2023-02-28T04:37:16;-2.70;99.90
13436;DHT22;6790;49.520;8.504;2023-02-28T04:39:42;-2.60;99.90
13436;DHT22;6790;49.520;8.504;2023-02-28T04:42:09;-2.60;99.90
13436;DHT22;6790;49.520;8.504;2023-02-28T04:44:35;-2.50;99.90
13436;DHT22;6790;49.520;8.504;2023-02-28T04:47:01;-2.50;99.90
13436;DHT22;6790;49.520;8.504;2023-02-28T04:49:26;-2.50;99.90
13436;DHT22;6790;49.520;8.504;2023-02-28T04:51:52;-2.50;99.90
13436;DHT22;6790;49.520;8.504;2023-02-28T04:54:18;-2.40;99.90
13436;DHT22;6790;49.520;8.504;2023-02-28T04:56:44;-2.50;99.90
13436;DHT22;6790;49.520;8.504;2023-02-28T04:59:09;-2.60;99.90
13436;DHT22;6790;49.520;8.504;2023-02-28T05:01:35;-2.60;99.90
13436;DHT22;6790;49.520;8.504;2023-02-28T05:04:03;-2.60;99.90
13436;DHT22;6790;49.520;8.504;2023-02-28T05:06:32;-2.70;99.90
13436;DHT22;6790;49.520;8.504;2023-02-28T05:08:58;-2.80;99.90
13436;DHT22;6790;49.520;8.504;2023-02-28T05:11:29;-2.70;99.90
13436;DHT22;6790;49.520;8.504;2023-02-28T05:14:03;-2.70;99.90
13436;DHT22;6790;49.520;8.504;2023-02-28T05:16:31;-2.80;99.90
13436;DHT22;6790;49.520;8.504;2023-02-28T05:18:57;-2.80;99.90
13436;DHT22;6790;49.520;8.504;2023-02-28T05:23:54;-2.70;99.90
13436;DHT22;6790;49.520;8.504;2023-02-28T05:26:21;-2.70;99.90
13436;DHT22;6790;49.520;8.504;2023-02-28T05:28:47;-2.50;99.90
13436;DHT22;6790;49.520;8.504;2023-02-28T05:31:13;-2.30;99.90
13436;DHT22;6790;49.520;8.504;2023-02-28T05:33:39;-2.30;99.90
13436;DHT22;6790;49.520;8.504;2023-02-28T05:36:06;-2.30;99.90
13436;DHT22;6790;49.520;8.504;2023-02-28T05:38:32;-2.30;99.90
13436;DHT22;6790;49.520;8.504;2023-02-28T05:40:57;-2.20;99.90
13436;DHT22;6790;49.520;8.504;2023-02-28T05:43:23;-2.10;99.90
13436;DHT22;6790;49.520;8.504;2023-02-28T05:45:49;-2.20;99.90
13436;DHT22;6790;49.520;8.504;2023-02-28T05:48:15;-2.10;99.90
13436;DHT22;6790;49.520;8.504;2023-02-28T05:50:40;-2.10;99.90
13436;DHT22;6790;49.520;8.504;2023-02-28T05:53:08;-2.10;99.90
13436;DHT22;6790;49.520;8.504;2023-02-28T05:55:33;-2.00;99.90
13436;DHT22;6790;49.520;8.504;2023-02-28T05:58:01;-2.00;99.90
13436;DHT22;6790;49.520;8.504;2023-02-28T06:00:26;-1.90;99.90
13436;DHT22;6790;49.520;8.504;2023-02-28T06:02:53;-1.70;99.90
13436;DHT22;6790;49.520;8.504;2023-02-28T06:05:22;-1.70;99.90
13436;DHT22;6790;49.520;8.504;2023-02-28T06:07:47;-1.60;99.90
13436;DHT22;6790;49.520;8.504;2023-02-28T06:10:13;-1.60;99.90
13436;DHT22;6790;49.520;8.504;2023-02-28T06:12:40;-1.80;99.90
13436;DHT22;6790;49.520;8.504;2023-02-28T06:15:09;-1.90;99.90
13436;DHT22;6790;49.520;8.504;2023-02-28T06:17:37;-1.80;99.90
13436;DHT22;6790;49.520;8.504;2023-02-28T06:20:04;-1.80;99.90
13436;DHT22;6790;49.520;8.504;2023-02-28T06:22:30;-1.80;99.90
13436;DHT22;6790;49.520;8.504;2023-02-28T06:24:56;-1.90;99.90
13436;DHT22;6790;49.520;8.504;2023-02-28T06:27:22;-1.90;99.90
13436;DHT22;6790;49.520;8.504;2023-02-28T06:29:48;-2.00;99.90
13436;DHT22;6790;49.520;8.504;2023-02-28T06:32:14;-1.90;99.90
13436;DHT22;6790;49.520;8.504;2023-02-28T06:34:40;-1.90;99.90
13436;DHT22;6790;49.520;8.504;2023-02-28T06:37:05;-1.90;99.90
13436;DHT22;6790;49.520;8.504;2023-02-28T06:39:31;-1.80;99.90
13436;DHT22;6790;49.520;8.504;2023-02-28T06:41:57;-1.80;99.90
13436;DHT22;6790;49.520;8.504;2023-02-28T06:44:23;-1.70;99.90
13436;DHT22;6790;49.520;8.504;2023-02-28T06:46:49;-1.70;99.90
13436;DHT22;6790;49.520;8.504;2023-02-28T06:49:15;-1.60;99.90
13436;DHT22;6790;49.520;8.504;2023-02-28T06:51:43;-1.50;99.90
13436;DHT22;6790;49.520;8.504;2023-02-28T06:54:11;-1.50;99.90
13436;DHT22;6790;49.520;8.504;2023-02-28T06:56:37;-1.40;99.90
13436;DHT22;6790;49.520;8.504;2023-02-28T06:59:03;-1.40;99.90
13436;DHT22;6790;49.520;8.504;2023-02-28T07:01:30;-1.40;99.90
13436;DHT22;6790;49.520;8.504;2023-02-28T07:03:57;-1.30;99.90
13436;DHT22;6790;49.520;8.504;2023-02-28T07:06:23;-1.20;99.90
13436;DHT22;6790;49.520;8.504;2023-02-28T07:08:50;-1.10;99.90
13436;DHT22;6790;49.520;8.504;2023-02-28T07:11:21;-1.00;99.90
13436;DHT22;6790;49.520;8.504;2023-02-28T07:13:49;-1.00;99.90
13436;DHT22;6790;49.520;8.504;2023-02-28T07:16:16;-0.80;99.90
13436;DHT22;6790;49.520;8.504;2023-02-28T07:18:41;-0.70;99.90
13436;DHT22;6790;49.520;8.504;2023-02-28T07:21:09;-0.60;99.90
13436;DHT22;6790;49.520;8.504;2023-02-28T07:23:38;-0.50;99.90
13436;DHT22;6790;49.520;8.504;2023-02-28T07:26:10;-0.30;99.90
13436;DHT22;6790;49.520;8.504;2023-02-28T07:28:44;-0.20;99.90
13436;DHT22;6790;49.520;8.504;2023-02-28T07:31:11;-0.10;99.90
13436;DHT22;6790;49.520;8.504;2023-02-28T07:33:39;-0.10;99.90
13436;DHT22;6790;49.520;8.504;2023-02-28T07:36:11;0.00;99.90
13436;DHT22;6790;49.520;8.504;2023-02-28T07:38:42;0.00;99.90
13436;DHT22;6790;49.520;8.504;2023-02-28T07:41:09;0.10;99.90
13436;DHT22;6790;49.520;8.504;2023-02-28T07:43:35;0.20;99.90
13436;DHT22;6790;49.520;8.504;2023-02-28T07:46:12;0.20;99.90
13436;DHT22;6790;49.520;8.504;2023-02-28T07:48:43;0.30;99.90
13436;DHT22;6790;49.520;8.504;2023-02-28T07:51:09;0.40;99.90
13436;DHT22;6790;49.520;8.504;2023-02-28T07:53:34;0.40;99.90
13436;DHT22;6790;49.520;8.504;2023-02-28T07:56:01;0.50;99.90
13436;DHT22;6790;49.520;8.504;2023-02-28T07:58:29;0.60;99.90
13436;DHT22;6790;49.520;8.504;2023-02-28T08:00:55;0.70;99.90
13436;DHT22;6790;49.520;8.504;2023-02-28T08:03:23;0.80;99.90
13436;DHT22;6790;49.520;8.504;2023-02-28T08:05:49;0.90;99.90
13436;DHT22;6790;49.520;8.504;2023-02-28T08:08:15;0.90;99.90
13436;DHT22;6790;49.520;8.504;2023-02-28T08:10:42;0.90;99.90
13436;DHT22;6790;49.520;8.504;2023-02-28T08:13:08;1.00;99.90
13436;DHT22;6790;49.520;8.504;2023-02-28T08:15:34;1.00;99.90
13436;DHT22;6790;49.520;8.504;2023-02-28T08:17:59;1.00;99.90
13436;DHT22;6790;49.520;8.504;2023-02-28T08:20:26;0.80;99.90
13436;DHT22;6790;49.520;8.504;2023-02-28T08:22:52;1.00;99.90
13436;DHT22;6790;49.520;8.504;2023-02-28T08:25:18;1.00;99.90
13436;DHT22;6790;49.520;8.504;2023-02-28T08:27:44;1.10;99.90
13436;DHT22;6790;49.520;8.504;2023-02-28T08:30:11;1.50;99.90
13436;DHT22;6790;49.520;8.504;2023-02-28T08:32:38;1.70;99.90
13436;DHT22;6790;49.520;8.504;2023-02-28T08:35:05;1.70;99.90
13436;DHT22;6790;49.520;8.504;2023-02-28T08:37:31;1.80;99.90
13436;DHT22;6790;49.520;8.504;2023-02-28T08:39:57;1.60;99.90
13436;DHT22;6790;49.520;8.504;2023-02-28T08:42:23;1.80;99.90
13436;DHT22;6790;49.520;8.504;2023-02-28T08:44:49;1.90;99.90
13436;DHT22;6790;49.520;8.504;2023-02-28T08:47:15;2.10;99.90
13436;DHT22;6790;49.520;8.504;2023-02-28T08:49:41;2.00;99.90
13436;DHT22;6790;49.520;8.504;2023-02-28T08:52:07;2.00;99.90
13436;DHT22;6790;49.520;8.504;2023-02-28T08:54:32;2.30;99.90
13436;DHT22;6790;49.520;8.504;2023-02-28T08:56:59;2.40;99.90
13436;DHT22;6790;49.520;8.504;2023-02-28T08:59:25;2.30;99.90
13436;DHT22;6790;49.520;8.504;2023-02-28T09:01:51;2.60;99.90
13436;DHT22;6790;49.520;8.504;2023-02-28T09:04:16;2.80;99.90
13436;DHT22;6790;49.520;8.504;2023-02-28T09:06:42;2.80;99.90
13436;DHT22;6790;49.520;8.504;2023-02-28T09:09:09;2.80;99.90
13436;DHT22;6790;49.520;8.504;2023-02-28T09:11:35;2.60;99.90
13436;DHT22;6790;49.520;8.504;2023-02-28T09:14:02;2.80;99.90
13436;DHT22;6790;49.520;8.504;2023-02-28T09:16:29;3.20;99.90
13436;DHT22;6790;49.520;8.504;2023-02-28T09:18:56;3.30;99.90
13436;DHT22;6790;49.520;8.504;2023-02-28T09:21:22;3.60;98.80
13436;DHT22;6790;49.520;8.504;2023-02-28T09:23:49;4.20;97.50
13436;DHT22;6790;49.520;8.504;2023-02-28T09:28:48;3.90;95.30
13436;DHT22;6790;49.520;8.504;2023-02-28T09:31:16;3.90;97.30
13436;DHT22;6790;49.520;8.504;2023-02-28T09:33:46;3.70;96.00
13436;DHT22;6790;49.520;8.504;2023-02-28T09:36:16;3.40;96.10
13436;DHT22;6790;49.520;8.504;2023-02-28T09:38:42;3.40;96.50
13436;DHT22;6790;49.520;8.504;2023-02-28T09:41:27;3.50;96.20
13436;DHT22;6790;49.520;8.504;2023-02-28T09:44:04;3.40;95.80
13436;DHT22;6790;49.520;8.504;2023-02-28T09:46:40;3.40;95.30
13436;DHT22;6790;49.520;8.504;2023-02-28T09:49:14;3.70;95.70
13436;DHT22;6790;49.520;8.504;2023-02-28T09:51:58;3.60;94.90
13436;DHT22;6790;49.520;8.504;2023-02-28T09:54:29;3.80;94.30
13436;DHT22;6790;49.520;8.504;2023-02-28T09:57:05;3.70;94.30
13436;DHT22;6790;49.520;8.504;2023-02-28T09:59:51;3.70;93.20
13436;DHT22;6790;49.520;8.504;2023-02-28T10:02:46;3.80;93.10
13436;DHT22;6790;49.520;8.504;2023-02-28T10:05:27;3.80;93.60
13436;DHT22;6790;49.520;8.504;2023-02-28T10:10:55;4.20;92.30
13436;DHT22;6790;49.520;8.504;2023-02-28T10:13:45;4.30;91.70
13436;DHT22;6790;49.520;8.504;2023-02-28T10:16:25;4.50;91.50
13436;DHT22;6790;49.520;8.504;2023-02-28T10:19:01;4.60;90.20
13436;DHT22;6790;49.520;8.504;2023-02-28T10:21:41;4.50;91.00
13436;DHT22;6790;49.520;8.504;2023-02-28T10:24:35;4.90;90.30
13436;DHT22;6790;49.520;8.504;2023-02-28T10:27:23;4.60;88.90
13436;DHT22;6790;49.520;8.504;2023-02-28T10:29:55;4.70;88.90
13436;DHT22;6790;49.520;8.504;2023-02-28T10:32:23;4.60;86.10
13436;DHT22;6790;49.520;8.504;2023-02-28T10:35:21;4.50;91.50
13436;DHT22;6790;49.520;8.504;2023-02-28T10:37:52;4.70;88.10
13436;DHT22;6790;49.520;8.504;2023-02-28T10:45:24;4.30;90.10
13436;DHT22;6790;49.520;8.504;2023-02-28T10:56:05;5.30;82.80
13436;DHT22;6790;49.520;8.504;2023-02-28T10:58:57;5.30;83.40
13436;DHT22;6790;49.520;8.504;2023-02-28T11:01:35;5.50;81.30
13436;DHT22;6790;49.520;8.504;2023-02-28T11:04:23;5.30;82.40
13436;DHT22;6790;49.520;8.504;2023-02-28T11:06:59;5.50;81.80
13436;DHT22;6790;49.520;8.504;2023-02-28T11:09:33;5.80;80.10
13436;DHT22;6790;49.520;8.504;2023-02-28T11:12:04;5.40;76.70
13436;DHT22;6790;49.520;8.504;2023-02-28T11:14:46;5.00;84.00
13436;DHT22;6790;49.520;8.504;2023-02-28T11:17:20;5.30;82.00
13436;DHT22;6790;49.520;8.504;2023-02-28T11:19:55;5.10;83.80
13436;DHT22;6790;49.520;8.504;2023-02-28T11:22:26;5.20;78.80
13436;DHT22;6790;49.520;8.504;2023-02-28T11:24:59;5.30;77.20
13436;DHT22;6790;49.520;8.504;2023-02-28T11:29:56;5.50;78.00
13436;DHT22;6790;49.520;8.504;2023-02-28T11:32:25;5.40;74.80
13436;DHT22;6790;49.520;8.504;2023-02-28T11:35:24;5.00;76.60
13436;DHT22;6790;49.520;8.504;2023-02-28T11:37:53;4.90;78.70
13436;DHT22;6790;49.520;8.504;2023-02-28T11:40:24;5.20;79.50
13436;DHT22;6790;49.520;8.504;2023-02-28T11:48:53;5.60;76.20
13436;DHT22;6790;49.520;8.504;2023-02-28T11:51:34;5.30;74.60
13436;DHT22;6790;49.520;8.504;2023-02-28T11:54:23;4.90;77.10
13436;DHT22;6790;49.520;8.504;2023-02-28T11:57:00;5.10;76.60
13436;DHT22;6790;49.520;8.504;2023-02-28T12:05:49;5.50;74.20
13436;DHT22;6790;49.520;8.504;2023-02-28T12:14:35;5.60;73.70
13436;DHT22;6790;49.520;8.504;2023-02-28T12:17:21;6.00;77.00
13436;DHT22;6790;49.520;8.504;2023-02-28T12:23:38;6.00;73.20
13436;DHT22;6790;49.520;8.504;2023-02-28T12:28:57;5.70;70.20
13436;DHT22;6790;49.520;8.504;2023-02-28T12:31:35;5.80;73.80
13436;DHT22;6790;49.520;8.504;2023-02-28T12:34:10;5.90;75.00
13436;DHT22;6790;49.520;8.504;2023-02-28T12:36:40;5.90;72.40
13436;DHT22;6790;49.520;8.504;2023-02-28T12:42:19;5.90;73.40
13436;DHT22;6790;49.520;8.504;2023-02-28T12:44:52;6.10;71.30
13436;DHT22;6790;49.520;8.504;2023-02-28T12:47:22;6.00;72.00
13436;DHT22;6790;49.520;8.504;2023-02-28T12:50:02;6.10;72.50
13436;DHT22;6790;49.520;8.504;2023-02-28T13:04:16;6.30;70.70
13436;DHT22;6790;49.520;8.504;2023-02-28T13:09:30;6.20;69.10
13436;DHT22;6790;49.520;8.504;2023-02-28T13:11:56;5.90;70.00
13436;DHT22;6790;49.520;8.504;2023-02-28T13:14:36;5.90;70.70
13436;DHT22;6790;49.520;8.504;2023-02-28T13:17:11;6.00;69.40
13436;DHT22;6790;49.520;8.504;2023-02-28T13:27:47;5.90;71.80
13436;DHT22;6790;49.520;8.504;2023-02-28T13:33:36;6.00;68.50
13436;DHT22;6790;49.520;8.504;2023-02-28T13:36:28;6.10;67.50
13436;DHT22;6790;49.520;8.504;2023-02-28T13:39:00;6.10;67.50
13436;DHT22;6790;49.520;8.504;2023-02-28T13:44:13;5.70;67.40
13436;DHT22;6790;49.520;8.504;2023-02-28T13:49:28;5.60;72.50
13436;DHT22;6790;49.520;8.504;2023-02-28T13:54:56;5.90;70.90
13436;DHT22;6790;49.520;8.504;2023-02-28T13:58:02;6.00;69.40
13436;DHT22;6790;49.520;8.504;2023-02-28T14:06:29;5.90;68.10
13436;DHT22;6790;49.520;8.504;2023-02-28T14:09:05;5.80;71.10
13436;DHT22;6790;49.520;8.504;2023-02-28T14:11:42;5.90;68.50
13436;DHT22;6790;49.520;8.504;2023-02-28T14:17:21;6.00;67.70
13436;DHT22;6790;49.520;8.504;2023-02-28T14:19:47;6.40;69.50
13436;DHT22;6790;49.520;8.504;2023-02-28T14:22:43;6.30;67.60
13436;DHT22;6790;49.520;8.504;2023-02-28T14:31:12;6.40;68.60
13436;DHT22;6790;49.520;8.504;2023-02-28T14:36:41;7.60;60.80
13436;DHT22;6790;49.520;8.504;2023-02-28T14:39:14;7.20;66.30
13436;DHT22;6790;49.520;8.504;2023-02-28T14:41:43;6.50;64.60
13436;DHT22;6790;49.520;8.504;2023-02-28T14:44:21;6.30;67.00
13436;DHT22;6790;49.520;8.504;2023-02-28T14:47:13;6.20;69.10
13436;DHT22;6790;49.520;8.504;2023-02-28T14:49:45;6.40;68.70
13436;DHT22;6790;49.520;8.504;2023-02-28T14:54:44;6.70;67.50
13436;DHT22;6790;49.520;8.504;2023-02-28T14:57:32;7.00;64.50
13436;DHT22;6790;49.520;8.504;2023-02-28T15:00:16;7.00;63.80
13436;DHT22;6790;49.520;8.504;2023-02-28T15:02:54;8.30;62.00
13436;DHT22;6790;49.520;8.504;2023-02-28T15:05:29;8.60;57.20
13436;DHT22;6790;49.520;8.504;2023-02-28T15:08:12;6.90;59.60
13436;DHT22;6790;49.520;8.504;2023-02-28T15:13:36;5.80;65.50
13436;DHT22;6790;49.520;8.504;2023-02-28T15:16:39;5.30;69.90
13436;DHT22;6790;49.520;8.504;2023-02-28T15:19:23;5.40;73.70
13436;DHT22;6790;49.520;8.504;2023-02-28T15:21:58;5.30;72.50
13436;DHT22;6790;49.520;8.504;2023-02-28T15:24:48;5.30;72.20
13436;DHT22;6790;49.520;8.504;2023-02-28T15:27:22;5.20;73.10
13436;DHT22;6790;49.520;8.504;2023-02-28T15:29:58;5.10;73.50
13436;DHT22;6790;49.520;8.504;2023-02-28T15:33:01;5.10;72.90
13436;DHT22;6790;49.520;8.504;2023-02-28T15:35:31;5.00;73.90
13436;DHT22;6790;49.520;8.504;2023-02-28T15:38:13;5.00;77.60
13436;DHT22;6790;49.520;8.504;2023-02-28T15:40:43;4.90;76.00
13436;DHT22;6790;49.520;8.504;2023-02-28T15:43:32;4.90;76.10
13436;DHT22;6790;49.520;8.504;2023-02-28T15:48:35;4.80;77.70
13436;DHT22;6790;49.520;8.504;2023-02-28T15:51:19;4.80;77.70
13436;DHT22;6790;49.520;8.504;2023-02-28T15:54:00;4.80;77.50
13436;DHT22;6790;49.520;8.504;2023-02-28T15:56:30;4.90;77.50
13436;DHT22;6790;49.520;8.504;2023-02-28T15:59:00;4.90;78.00
13436;DHT22;6790;49.520;8.504;2023-02-28T16:01:34;4.90;77.80
13436;DHT22;6790;49.520;8.504;2023-02-28T16:04:10;4.90;76.80
13436;DHT22;6790;49.520;8.504;2023-02-28T16:06:44;4.90;77.40
13436;DHT22;6790;49.520;8.504;2023-02-28T16:09:15;4.80;77.20
13436;DHT22;6790;49.520;8.504;2023-02-28T16:12:03;4.80;77.40
13436;DHT22;6790;49.520;8.504;2023-02-28T16:14:31;4.70;77.50
13436;DHT22;6790;49.520;8.504;2023-02-28T16:17:04;4.60;77.50
13436;DHT22;6790;49.520;8.504;2023-02-28T16:19:37;4.60;77.60
13436;DHT22;6790;49.520;8.504;2023-02-28T16:22:03;4.60;78.50
13436;DHT22;6790;49.520;8.504;2023-02-28T16:24:29;4.50;79.90
13436;DHT22;6790;49.520;8.504;2023-02-28T16:26:56;4.50;79.20
13436;DHT22;6790;49.520;8.504;2023-02-28T16:29:28;4.40;79.50
13436;DHT22;6790;49.520;8.504;2023-02-28T16:31:58;4.30;81.70
13436;DHT22;6790;49.520;8.504;2023-02-28T16:34:25;4.40;81.10
13436;DHT22;6790;49.520;8.504;2023-02-28T16:36:54;4.30;81.30
13436;DHT22;6790;49.520;8.504;2023-02-28T16:39:20;4.30;82.30
13436;DHT22;6790;49.520;8.504;2023-02-28T16:41:50;4.30;82.20
13436;DHT22;6790;49.520;8.504;2023-02-28T16:44:33;4.20;83.70
13436;DHT22;6790;49.520;8.504;2023-02-28T16:47:02;4.10;83.60
13436;DHT22;6790;49.520;8.504;2023-02-28T16:49:29;4.10;86.00
13436;DHT22;6790;49.520;8.504;2023-02-28T16:51:55;4.10;85.20
13436;DHT22;6790;49.520;8.504;2023-02-28T16:54:20;4.00;85.00
13436;DHT22;6790;49.520;8.504;2023-02-28T16:56:50;4.00;85.30
13436;DHT22;6790;49.520;8.504;2023-02-28T16:59:22;3.90;86.20
13436;DHT22;6790;49.520;8.504;2023-02-28T17:01:49;3.80;87.10
13436;DHT22;6790;49.520;8.504;2023-02-28T17:04:16;3.80;87.80
13436;DHT22;6790;49.520;8.504;2023-02-28T17:06:41;3.70;88.20
13436;DHT22;6790;49.520;8.504;2023-02-28T17:09:19;3.80;87.80
13436;DHT22;6790;49.520;8.504;2023-02-28T17:11:46;3.70;88.60
13436;DHT22;6790;49.520;8.504;2023-02-28T17:14:12;3.50;88.80
13436;DHT22;6790;49.520;8.504;2023-02-28T17:16:39;3.40;89.70
13436;DHT22;6790;49.520;8.504;2023-02-28T17:19:09;3.30;90.40
13436;DHT22;6790;49.520;8.504;2023-02-28T17:21:37;3.30;91.10
13436;DHT22;6790;49.520;8.504;2023-02-28T17:24:03;3.20;90.90
13436;DHT22;6790;49.520;8.504;2023-02-28T17:26:29;3.00;91.30
13436;DHT22;6790;49.520;8.504;2023-02-28T17:28:56;2.90;92.30
13436;DHT22;6790;49.520;8.504;2023-02-28T17:31:24;2.70;93.00
13436;DHT22;6790;49.520;8.504;2023-02-28T17:33:50;2.60;93.80
13436;DHT22;6790;49.520;8.504;2023-02-28T17:36:21;2.50;94.00
13436;DHT22;6790;49.520;8.504;2023-02-28T17:38:48;2.40;94.70
13436;DHT22;6790;49.520;8.504;2023-02-28T17:41:14;2.30;95.30
13436;DHT22;6790;49.520;8.504;2023-02-28T17:43:40;2.20;95.60
13436;DHT22;6790;49.520;8.504;2023-02-28T17:46:20;2.10;96.20
13436;DHT22;6790;49.520;8.504;2023-02-28T17:48:51;2.00;96.70
13436;DHT22;6790;49.520;8.504;2023-02-28T17:51:20;1.90;97.30
13436;DHT22;6790;49.520;8.504;2023-02-28T17:53:47;1.80;98.00
13436;DHT22;6790;49.520;8.504;2023-02-28T17:56:20;1.70;98.10
13436;DHT22;6790;49.520;8.504;2023-02-28T17:58:48;1.60;98.50
13436;DHT22;6790;49.520;8.504;2023-02-28T18:01:14;1.50;99.20
13436;DHT22;6790;49.520;8.504;2023-02-28T18:03:40;1.50;99.10
13436;DHT22;6790;49.520;8.504;2023-02-28T18:06:08;1.50;99.40
13436;DHT22;6790;49.520;8.504;2023-02-28T18:08:39;1.40;99.50
13436;DHT22;6790;49.520;8.504;2023-02-28T18:11:05;1.40;99.90
13436;DHT22;6790;49.520;8.504;2023-02-28T18:13:31;1.30;99.90
13436;DHT22;6790;49.520;8.504;2023-02-28T18:15:56;1.20;99.90
13436;DHT22;6790;49.520;8.504;2023-02-28T18:18:22;1.20;99.90
13436;DHT22;6790;49.520;8.504;2023-02-28T18:20:48;1.10;99.90
13436;DHT22;6790;49.520;8.504;2023-02-28T18:23:15;1.00;99.90
13436;DHT22;6790;49.520;8.504;2023-02-28T18:25:42;1.00;99.90
13436;DHT22;6790;49.520;8.504;2023-02-28T18:28:08;0.90;99.90
13436;DHT22;6790;49.520;8.504;2023-02-28T18:30:36;0.80;99.90
13436;DHT22;6790;49.520;8.504;2023-02-28T18:33:02;0.80;99.90
13436;DHT22;6790;49.520;8.504;2023-02-28T18:35:29;0.70;99.90
13436;DHT22;6790;49.520;8.504;2023-02-28T18:38:16;0.70;99.90
13436;DHT22;6790;49.520;8.504;2023-02-28T18:40:52;0.60;99.90